createdAt,value
2023-04-12T00:00:17.765Z,94774.00
2023-04-12T00:01:16.886Z,94774.00
2023-04-12T00:02:17.002Z,94772.00
2023-04-12T00:03:17.061Z,94772.00
2023-04-12T00:04:17.183Z,94768.00
2023-04-12T00:05:17.141Z,94768.00
2023-04-12T00:06:17.067Z,94764.00
2023-04-12T00:07:17.062Z,94762.00
2023-04-12T00:08:17.757Z,94762.00
2023-04-12T00:09:17.086Z,94762.00
2023-04-12T00:10:17.085Z,94760.00
2023-04-12T00:11:17.077Z,94758.00
2023-04-12T00:12:17.068Z,94758.00
2023-04-12T00:13:17.099Z,94760.00
2023-04-12T00:14:17.066Z,94758.00
2023-04-12T00:15:17.067Z,94756.00
2023-04-12T00:16:17.200Z,94754.00
2023-04-12T00:17:17.084Z,94748.00
2023-04-12T00:18:17.094Z,94742.00
2023-04-12T00:19:17.104Z,94742.00
2023-04-12T00:20:17.099Z,94739.00
2023-04-12T00:21:17.089Z,94737.00
2023-04-12T00:22:17.081Z,94735.00
2023-04-12T00:23:17.088Z,94733.00
2023-04-12T00:24:17.088Z,94729.00
2023-04-12T00:25:17.104Z,94727.00
2023-04-12T00:26:17.085Z,94729.00
2023-04-12T00:27:17.083Z,94725.00
2023-04-12T00:28:17.087Z,94723.00
2023-04-12T00:29:17.108Z,94723.00
2023-04-12T00:30:17.072Z,94721.00
2023-04-12T00:31:17.094Z,94719.00
2023-04-12T00:32:17.089Z,94719.00
2023-04-12T00:33:17.080Z,94717.00
2023-04-12T00:34:17.063Z,94717.00
2023-04-12T00:35:17.070Z,94713.00
2023-04-12T00:36:17.124Z,94713.00
2023-04-12T00:37:17.046Z,94709.00
2023-04-12T00:38:17.040Z,94709.00
2023-04-12T00:39:17.046Z,94707.00
2023-04-12T00:40:17.031Z,94707.00
2023-04-12T00:41:17.035Z,94705.00
2023-04-12T00:42:17.020Z,94701.00
2023-04-12T00:43:17.034Z,94699.00
2023-04-12T00:44:17.037Z,94697.00
2023-04-12T00:45:17.060Z,94695.00
2023-04-12T00:46:17.066Z,94694.00
2023-04-12T00:47:17.034Z,94695.00
2023-04-12T00:48:17.046Z,94694.00
2023-04-12T00:49:17.036Z,94694.00
2023-04-12T00:50:17.057Z,94695.00
2023-04-12T00:51:17.033Z,94697.00
2023-04-12T00:52:17.032Z,94694.00
2023-04-12T00:53:17.024Z,94697.00
2023-04-12T00:54:17.020Z,94695.00
2023-04-12T00:55:17.030Z,94697.00
2023-04-12T00:56:17.020Z,94695.00
2023-04-12T00:57:17.025Z,94694.00
2023-04-12T00:58:17.018Z,94692.00
2023-04-12T00:59:17.007Z,94692.00
2023-04-12T01:00:17.009Z,94690.00
2023-04-12T01:01:17.072Z,94692.00
2023-04-12T01:02:17.082Z,94692.00
2023-04-12T01:03:17.172Z,94695.00
2023-04-12T01:04:16.994Z,94692.00
2023-04-12T01:05:16.997Z,94686.00
2023-04-12T01:06:16.983Z,94686.00
2023-04-12T01:07:16.977Z,94682.00
2023-04-12T01:08:16.986Z,94684.00
2023-04-12T01:09:16.980Z,94680.00
2023-04-12T01:10:16.975Z,94680.00
2023-04-12T01:11:16.982Z,94678.00
2023-04-12T01:12:16.978Z,94680.00
2023-04-12T01:13:16.978Z,94680.00
2023-04-12T01:14:16.980Z,94678.00
2023-04-12T01:15:16.981Z,94680.00
2023-04-12T01:16:17.010Z,94678.00
2023-04-12T01:17:17.027Z,94676.00
2023-04-12T01:18:16.989Z,94676.00
2023-04-12T01:19:16.995Z,94676.00
2023-04-12T01:20:17.052Z,94674.00
2023-04-12T01:21:16.979Z,94674.00
2023-04-12T01:22:16.972Z,94672.00
2023-04-12T01:23:16.965Z,94670.00
2023-04-12T01:24:16.956Z,94672.00
2023-04-12T01:25:16.964Z,94670.00
2023-04-12T01:26:17.035Z,94668.00
2023-04-12T01:27:16.963Z,94664.00
2023-04-12T01:28:16.955Z,94664.00
2023-04-12T01:29:16.950Z,94660.00
2023-04-12T01:30:16.987Z,94658.00
2023-04-12T01:31:16.977Z,94656.00
2023-04-12T01:32:16.956Z,94654.00
2023-04-12T01:33:16.981Z,94652.00
2023-04-12T01:34:16.972Z,94650.00
2023-04-12T01:35:16.976Z,94648.00
2023-04-12T01:36:16.968Z,94648.00
2023-04-12T01:37:16.962Z,94647.00
2023-04-12T01:38:16.973Z,94647.00
2023-04-12T01:39:16.983Z,94647.00
2023-04-12T01:40:16.963Z,94645.00
2023-04-12T01:41:16.970Z,94645.00
2023-04-12T01:42:16.960Z,94643.00
2023-04-12T01:43:16.963Z,94633.00
2023-04-12T01:44:16.993Z,94629.00
2023-04-12T01:45:16.960Z,94629.00
2023-04-12T01:46:17.139Z,94627.00
2023-04-12T01:47:16.981Z,94625.00
2023-04-12T01:48:16.986Z,94623.00
2023-04-12T01:49:17.009Z,94621.00
2023-04-12T01:50:16.974Z,94615.00
2023-04-12T01:51:16.976Z,94611.00
2023-04-12T01:52:16.964Z,94613.00
2023-04-12T01:53:16.959Z,94613.00
2023-04-12T01:54:16.961Z,94615.00
2023-04-12T01:55:16.973Z,94617.00
2023-04-12T01:56:16.953Z,94615.00
2023-04-12T01:57:16.949Z,94617.00
2023-04-12T01:58:16.947Z,94617.00
2023-04-12T01:59:16.945Z,94615.00
2023-04-12T02:00:16.952Z,94621.00
2023-04-12T02:01:16.949Z,94623.00
2023-04-12T02:02:17.029Z,94621.00
2023-04-12T02:03:17.095Z,94623.00
2023-04-12T02:04:16.962Z,94623.00
2023-04-12T02:05:16.957Z,94619.00
2023-04-12T02:06:16.920Z,94627.00
2023-04-12T02:07:16.914Z,94617.00
2023-04-12T02:08:16.919Z,94625.00
2023-04-12T02:09:16.921Z,94623.00
2023-04-12T02:10:16.904Z,94623.00
2023-04-12T02:11:16.917Z,94623.00
2023-04-12T02:12:16.910Z,94623.00
2023-04-12T02:13:16.901Z,94623.00
2023-04-12T02:14:16.908Z,94623.00
2023-04-12T02:15:16.896Z,94623.00
2023-04-12T02:16:16.932Z,94623.00
2023-04-12T02:17:16.889Z,94621.00
2023-04-12T02:18:16.922Z,94625.00
2023-04-12T02:19:16.894Z,94623.00
2023-04-12T02:20:16.872Z,94621.00
2023-04-12T02:21:16.892Z,94613.00
2023-04-12T02:22:16.859Z,94617.00
2023-04-12T02:23:16.858Z,94615.00
2023-04-12T02:24:16.863Z,94615.00
2023-04-12T02:25:16.865Z,94619.00
2023-04-12T02:26:16.859Z,94619.00
2023-04-12T02:27:16.858Z,94619.00
2023-04-12T02:28:16.856Z,94617.00
2023-04-12T02:29:16.845Z,94617.00
2023-04-12T02:30:16.853Z,94619.00
2023-04-12T02:31:17.204Z,94611.00
2023-04-12T02:32:16.849Z,94611.00
2023-04-12T02:33:16.830Z,94605.00
2023-04-12T02:34:16.833Z,94607.00
2023-04-12T02:35:16.898Z,94605.00
2023-04-12T02:36:16.836Z,94605.00
2023-04-12T02:37:16.867Z,94605.00
2023-04-12T02:38:16.827Z,94605.00
2023-04-12T02:39:16.821Z,94607.00
2023-04-12T02:40:16.819Z,94607.00
2023-04-12T02:41:16.824Z,94605.00
2023-04-12T02:42:16.837Z,94607.00
2023-04-12T02:43:16.814Z,94607.00
2023-04-12T02:44:16.821Z,94607.00
2023-04-12T02:45:16.824Z,94607.00
2023-04-12T02:46:16.864Z,94605.00
2023-04-12T02:47:16.824Z,94607.00
2023-04-12T02:48:16.828Z,94607.00
2023-04-12T02:49:16.833Z,94609.00
2023-04-12T02:50:16.823Z,94609.00
2023-04-12T02:51:16.817Z,94615.00
2023-04-12T02:52:16.829Z,94615.00
2023-04-12T02:53:16.866Z,94615.00
2023-04-12T02:54:16.837Z,94617.00
2023-04-12T02:55:16.835Z,94619.00
2023-04-12T02:56:16.848Z,94619.00
2023-04-12T02:57:16.846Z,94621.00
2023-04-12T02:58:16.840Z,94627.00
2023-04-12T02:59:16.826Z,94623.00
2023-04-12T03:00:16.830Z,94621.00
2023-04-12T03:01:16.880Z,94621.00
2023-04-12T03:02:16.875Z,94619.00
2023-04-12T03:03:17.052Z,94623.00
2023-04-12T03:04:17.061Z,94621.00
2023-04-12T03:05:16.808Z,94625.00
2023-04-12T03:06:16.826Z,94625.00
2023-04-12T03:07:16.823Z,94625.00
2023-04-12T03:08:16.810Z,94621.00
2023-04-12T03:09:16.829Z,94625.00
2023-04-12T03:10:16.841Z,94625.00
2023-04-12T03:11:16.797Z,94625.00
2023-04-12T03:12:16.800Z,94627.00
2023-04-12T03:13:16.785Z,94629.00
2023-04-12T03:14:16.788Z,94629.00
2023-04-12T03:15:16.786Z,94627.00
2023-04-12T03:16:16.823Z,94625.00
2023-04-12T03:17:16.773Z,94621.00
2023-04-12T03:18:16.781Z,94619.00
2023-04-12T03:19:16.782Z,94621.00
2023-04-12T03:20:16.767Z,94623.00
2023-04-12T03:21:16.758Z,94623.00
2023-04-12T03:22:16.759Z,94623.00
2023-04-12T03:23:16.754Z,94621.00
2023-04-12T03:24:16.750Z,94619.00
2023-04-12T03:25:16.827Z,94619.00
2023-04-12T03:26:16.747Z,94619.00
2023-04-12T03:27:16.743Z,94621.00
2023-04-12T03:28:16.743Z,94617.00
2023-04-12T03:29:16.731Z,94615.00
2023-04-12T03:30:16.729Z,94615.00
2023-04-12T03:31:16.785Z,94621.00
2023-04-12T03:32:16.742Z,94619.00
2023-04-12T03:33:16.726Z,94623.00
2023-04-12T03:34:16.729Z,94623.00
2023-04-12T03:35:16.813Z,94623.00
2023-04-12T03:36:16.732Z,94625.00
2023-04-12T03:37:16.752Z,94619.00
2023-04-12T03:38:16.723Z,94621.00
2023-04-12T03:39:16.715Z,94617.00
2023-04-12T03:40:16.725Z,94621.00
2023-04-12T03:41:16.925Z,94617.00
2023-04-12T03:42:31.620Z,94619.00
2023-04-12T03:43:16.704Z,94621.00
2023-04-12T03:44:16.697Z,94623.00
2023-04-12T03:45:16.688Z,94617.00
2023-04-12T03:46:16.759Z,94619.00
2023-04-12T03:47:16.684Z,94619.00
2023-04-12T03:48:16.668Z,94617.00
2023-04-12T03:49:16.733Z,94621.00
2023-04-12T03:50:16.650Z,94619.00
2023-04-12T03:51:16.656Z,94617.00
2023-04-12T03:52:16.646Z,94619.00
2023-04-12T03:53:16.635Z,94619.00
2023-04-12T03:54:16.633Z,94619.00
2023-04-12T03:55:16.662Z,94617.00
2023-04-12T03:56:16.629Z,94617.00
2023-04-12T03:57:16.662Z,94613.00
2023-04-12T03:58:16.675Z,94609.00
2023-04-12T03:59:16.615Z,94611.00
2023-04-12T04:00:16.663Z,94609.00
2023-04-12T04:01:16.624Z,94609.00
2023-04-12T04:02:16.747Z,94607.00
2023-04-12T04:03:16.701Z,94605.00
2023-04-12T04:04:16.845Z,94607.00
2023-04-12T04:05:16.680Z,94609.00
2023-04-12T04:06:16.620Z,94607.00
2023-04-12T04:07:16.653Z,94607.00
2023-04-12T04:08:16.624Z,94607.00
2023-04-12T04:09:16.627Z,94605.00
2023-04-12T04:10:16.621Z,94605.00
2023-04-12T04:11:16.620Z,94602.00
2023-04-12T04:12:16.662Z,94605.00
2023-04-12T04:13:16.654Z,94602.00
2023-04-12T04:14:16.653Z,94602.00
2023-04-12T04:15:16.639Z,94602.00
2023-04-12T04:16:16.657Z,94600.00
2023-04-12T04:17:16.634Z,94600.00
2023-04-12T04:18:16.635Z,94602.00
2023-04-12T04:19:16.630Z,94603.00
2023-04-12T04:20:16.628Z,94605.00
2023-04-12T04:21:16.635Z,94603.00
2023-04-12T04:22:16.637Z,94603.00
2023-04-12T04:23:16.641Z,94605.00
2023-04-12T04:24:16.630Z,94602.00
2023-04-12T04:25:16.642Z,94605.00
2023-04-12T04:26:16.639Z,94603.00
2023-04-12T04:27:16.639Z,94600.00
2023-04-12T04:28:16.646Z,94600.00
2023-04-12T04:29:16.660Z,94605.00
2023-04-12T04:30:16.635Z,94603.00
2023-04-12T04:31:16.691Z,94602.00
2023-04-12T04:32:16.663Z,94600.00
2023-04-12T04:33:16.639Z,94598.00
2023-04-12T04:34:16.643Z,94600.00
2023-04-12T04:35:16.730Z,94594.00
2023-04-12T04:36:16.668Z,94596.00
2023-04-12T04:37:16.644Z,94594.00
2023-04-12T04:38:16.641Z,94594.00
2023-04-12T04:39:16.649Z,94596.00
2023-04-12T04:40:16.650Z,94594.00
2023-04-12T04:41:16.644Z,94594.00
2023-04-12T04:42:16.666Z,94592.00
2023-04-12T04:43:16.645Z,94592.00
2023-04-12T04:44:16.645Z,94590.00
2023-04-12T04:45:16.682Z,94588.00
2023-04-12T04:46:16.694Z,94584.00
2023-04-12T04:47:16.651Z,94586.00
2023-04-12T04:48:16.618Z,94590.00
2023-04-12T04:49:16.233Z,94586.00
2023-04-12T04:50:16.248Z,94584.00
2023-04-12T04:51:16.232Z,94586.00
2023-04-12T04:52:16.235Z,94584.00
2023-04-12T04:53:16.214Z,94582.00
2023-04-12T04:54:16.209Z,94582.00
2023-04-12T04:55:16.203Z,94580.00
2023-04-12T04:56:16.206Z,94578.00
2023-04-12T04:57:16.184Z,94580.00
2023-04-12T04:58:16.180Z,94580.00
2023-04-12T04:59:16.161Z,94576.00
2023-04-12T05:00:16.164Z,94576.00
2023-04-12T05:01:16.196Z,94576.00
2023-04-12T05:02:16.723Z,94574.00
2023-04-12T05:03:16.290Z,94576.00
2023-04-12T05:04:16.172Z,94578.00
2023-04-12T05:05:16.128Z,94578.00
2023-04-12T05:06:16.111Z,94580.00
2023-04-12T05:07:16.107Z,94580.00
2023-04-12T05:08:16.107Z,94582.00
2023-04-12T05:09:16.087Z,94580.00
2023-04-12T05:10:16.091Z,94582.00
2023-04-12T05:11:16.075Z,94582.00
2023-04-12T05:12:16.066Z,94582.00
2023-04-12T05:13:16.670Z,94584.00
2023-04-12T05:14:16.056Z,94582.00
2023-04-12T05:15:16.041Z,94578.00
2023-04-12T05:16:16.072Z,94578.00
2023-04-12T05:17:16.116Z,94576.00
2023-04-12T05:18:16.667Z,94578.00
2023-04-12T05:19:16.018Z,94574.00
2023-04-12T05:20:16.010Z,94576.00
2023-04-12T05:21:16.019Z,94574.00
2023-04-12T05:22:16.029Z,94578.00
2023-04-12T05:23:16.017Z,94576.00
2023-04-12T05:24:16.016Z,94578.00
2023-04-12T05:25:16.054Z,94578.00
2023-04-12T05:26:16.003Z,94576.00
2023-04-12T05:27:16.014Z,94576.00
2023-04-12T05:28:16.001Z,94574.00
2023-04-12T05:29:16.010Z,94576.00
2023-04-12T05:30:15.998Z,94570.00
2023-04-12T05:31:16.069Z,94570.00
2023-04-12T05:32:16.690Z,94566.00
2023-04-12T05:33:16.149Z,94566.00
2023-04-12T05:34:16.008Z,94564.00
2023-04-12T05:35:16.010Z,94564.00
2023-04-12T05:36:16.010Z,94560.00
2023-04-12T05:37:16.682Z,94556.00
2023-04-12T05:38:16.076Z,94556.00
2023-04-12T05:39:16.101Z,94549.00
2023-04-12T05:40:16.140Z,94549.00
2023-04-12T05:41:16.164Z,94551.00
2023-04-12T05:42:16.212Z,94549.00
2023-04-12T05:43:16.908Z,94547.00
2023-04-12T05:44:16.699Z,94547.00
2023-04-12T05:45:16.708Z,94545.00
2023-04-12T05:46:16.738Z,94547.00
2023-04-12T05:47:16.932Z,94545.00
2023-04-12T05:48:16.699Z,94549.00
2023-04-12T05:49:16.710Z,94549.00
2023-04-12T05:50:16.937Z,94545.00
2023-04-12T05:51:18.283Z,94545.00
2023-04-12T05:52:16.941Z,94545.00
2023-04-12T05:53:19.955Z,94541.00
2023-04-12T05:54:16.761Z,94541.00
2023-04-12T05:55:16.963Z,94541.00
2023-04-12T05:56:16.742Z,94543.00
2023-04-12T05:57:16.933Z,94539.00
2023-04-12T05:58:17.057Z,94537.00
2023-04-12T05:59:16.737Z,94537.00
2023-04-12T06:00:19.926Z,94533.00
2023-04-12T06:01:16.740Z,94531.00
2023-04-12T06:03:16.919Z,94525.00
2023-04-12T06:04:17.830Z,94523.00
2023-04-12T06:05:16.895Z,94523.00
2023-04-12T06:06:16.717Z,94521.00
2023-04-12T06:07:16.673Z,94519.00
2023-04-12T06:08:16.930Z,94517.00
2023-04-12T06:09:16.652Z,94515.00
2023-04-12T06:10:16.672Z,94517.00
2023-04-12T06:11:16.629Z,94515.00
2023-04-12T06:12:16.653Z,94513.00
2023-04-12T06:13:16.653Z,94509.00
2023-04-12T06:14:16.686Z,94503.00
2023-04-12T06:15:16.726Z,94505.00
2023-04-12T06:16:16.772Z,94501.00
2023-04-12T06:17:17.150Z,94501.00
2023-04-12T06:18:16.952Z,94501.00
2023-04-12T06:19:16.939Z,94500.00
2023-04-12T06:20:16.797Z,94498.00
2023-04-12T06:21:16.998Z,94494.00
2023-04-12T06:22:16.987Z,94494.00
2023-04-12T06:23:16.944Z,94494.00
2023-04-12T06:24:16.904Z,94490.00
2023-04-12T06:25:16.930Z,94490.00
2023-04-12T06:26:18.389Z,94490.00
2023-04-12T06:27:16.914Z,94492.00
2023-04-12T06:28:16.963Z,94490.00
2023-04-12T06:29:16.896Z,94488.00
2023-04-12T06:30:16.892Z,94488.00
2023-04-12T06:31:17.015Z,94484.00
2023-04-12T06:32:17.007Z,94482.00
2023-04-12T06:33:16.947Z,94480.00
2023-04-12T06:34:16.851Z,94480.00
2023-04-12T06:35:16.859Z,94476.00
2023-04-12T06:36:16.909Z,94480.00
2023-04-12T06:37:17.039Z,94480.00
2023-04-12T06:38:16.844Z,94476.00
2023-04-12T06:39:17.092Z,94472.00
2023-04-12T06:40:16.813Z,94470.00
2023-04-12T06:41:16.815Z,94470.00
2023-04-12T06:42:17.580Z,94470.00
2023-04-12T06:43:16.795Z,94466.00
2023-04-12T06:44:16.971Z,94466.00
2023-04-12T06:45:16.803Z,94464.00
2023-04-12T06:46:16.793Z,94464.00
2023-04-12T06:47:16.939Z,94464.00
2023-04-12T06:48:17.752Z,94464.00
2023-04-12T06:49:16.933Z,94462.00
2023-04-12T06:50:16.754Z,94458.00
2023-04-12T06:51:16.735Z,94456.00
2023-04-12T06:52:16.727Z,94456.00
2023-04-12T06:53:16.745Z,94454.00
2023-04-12T06:54:16.944Z,94453.00
2023-04-12T06:55:16.711Z,94453.00
2023-04-12T06:56:18.581Z,94451.00
2023-04-12T06:57:16.686Z,94445.00
2023-04-12T06:58:16.932Z,94443.00
2023-04-12T06:59:16.671Z,94441.00
2023-04-12T07:00:16.698Z,94441.00
2023-04-12T07:01:16.727Z,94439.00
2023-04-12T07:02:16.722Z,94443.00
2023-04-12T07:03:16.987Z,94439.00
2023-04-12T07:04:16.732Z,94441.00
2023-04-12T07:05:16.638Z,94439.00
2023-04-12T07:06:24.946Z,94439.00
2023-04-12T07:07:16.616Z,94433.00
2023-04-12T07:08:17.051Z,94429.00
2023-04-12T07:09:16.644Z,94429.00
2023-04-12T07:10:16.603Z,94427.00
2023-04-12T07:11:21.575Z,94427.00
2023-04-12T07:12:16.608Z,94425.00
2023-04-12T07:13:16.955Z,94421.00
2023-04-12T07:14:17.038Z,94419.00
2023-04-12T07:15:16.590Z,94419.00
2023-04-12T07:16:16.583Z,94423.00
2023-04-12T07:17:16.980Z,94423.00
2023-04-12T07:18:16.591Z,94423.00
2023-04-12T07:19:16.574Z,94421.00
2023-04-12T07:20:17.485Z,94423.00
2023-04-12T07:21:16.565Z,94423.00
2023-04-12T07:22:16.560Z,94423.00
2023-04-12T07:23:16.553Z,94421.00
2023-04-12T07:24:16.965Z,94427.00
2023-04-12T07:25:16.567Z,94427.00
2023-04-12T07:26:16.538Z,94427.00
2023-04-12T07:27:17.521Z,94423.00
2023-04-12T07:28:16.524Z,94419.00
2023-04-12T07:29:16.963Z,94417.00
2023-04-12T07:30:16.551Z,94413.00
2023-04-12T07:31:16.520Z,94411.00
2023-04-12T07:32:16.984Z,94407.00
2023-04-12T07:33:19.898Z,94409.00
2023-04-12T07:34:16.593Z,94409.00
2023-04-12T07:35:16.475Z,94407.00
2023-04-12T07:36:16.584Z,94411.00
2023-04-12T07:37:17.487Z,94409.00
2023-04-12T07:38:17.060Z,94411.00
2023-04-12T07:39:16.511Z,94409.00
2023-04-12T07:40:16.411Z,94407.00
2023-04-12T07:41:16.452Z,94406.00
2023-04-12T07:42:17.142Z,94409.00
2023-04-12T07:43:16.518Z,94411.00
2023-04-12T07:44:17.783Z,94409.00
2023-04-12T07:45:17.003Z,94413.00
2023-04-12T07:46:16.833Z,94417.00
2023-04-12T07:47:16.975Z,94417.00
2023-04-12T07:48:16.535Z,94415.00
2023-04-12T07:49:17.009Z,94415.00
2023-04-12T07:50:16.611Z,94411.00
2023-04-12T07:51:16.588Z,94411.00
2023-04-12T07:52:16.941Z,94411.00
2023-04-12T07:53:16.787Z,94413.00
2023-04-12T07:54:17.001Z,94413.00
2023-04-12T07:55:17.791Z,94411.00
2023-04-12T07:56:16.803Z,94407.00
2023-04-12T07:57:17.075Z,94407.00
2023-04-12T07:58:16.847Z,94407.00
2023-04-12T07:59:16.868Z,94406.00
2023-04-12T08:00:16.865Z,94406.00
2023-04-12T08:01:16.896Z,94402.00
2023-04-12T08:02:25.632Z,94396.00
2023-04-12T08:03:17.120Z,94394.00
2023-04-12T08:04:17.093Z,94392.00
2023-04-12T08:05:17.061Z,94390.00
2023-04-12T08:06:17.036Z,94390.00
2023-04-12T08:07:17.894Z,94392.00
2023-04-12T08:08:17.908Z,94390.00
2023-04-12T08:09:17.052Z,94386.00
2023-04-12T08:10:17.891Z,94386.00
2023-04-12T08:11:16.890Z,94388.00
2023-04-12T08:12:17.135Z,94376.00
2023-04-12T08:13:17.879Z,94386.00
2023-04-12T08:14:17.842Z,94388.00
2023-04-12T08:15:16.829Z,94388.00
2023-04-12T08:16:17.082Z,94386.00
2023-04-12T08:17:16.942Z,94386.00
2023-04-12T08:18:17.010Z,94388.00
2023-04-12T08:19:17.043Z,94386.00
2023-04-12T08:20:17.106Z,94388.00
2023-04-12T08:21:17.821Z,94384.00
2023-04-12T08:22:17.309Z,94390.00
2023-04-12T08:23:17.401Z,94392.00
2023-04-12T08:24:17.267Z,94390.00
2023-04-12T08:25:17.372Z,94384.00
2023-04-12T08:26:18.014Z,94374.00
2023-04-12T08:27:17.682Z,94384.00
2023-04-12T08:28:18.016Z,94372.00
2023-04-12T08:29:17.729Z,94374.00
2023-04-12T08:30:17.654Z,94372.00
2023-04-12T08:31:17.746Z,94372.00
2023-04-12T08:32:18.718Z,94370.00
2023-04-12T08:33:17.685Z,94372.00
2023-04-12T08:34:17.743Z,94372.00
2023-04-12T08:35:18.249Z,94370.00
2023-04-12T08:36:17.854Z,94372.00
2023-04-12T08:37:17.879Z,94370.00
2023-04-12T08:38:18.511Z,94372.00
2023-04-12T08:39:18.037Z,94376.00
2023-04-12T08:40:19.019Z,94384.00
2023-04-12T08:41:17.943Z,94386.00
2023-04-12T08:42:17.953Z,94388.00
2023-04-12T08:43:18.029Z,94386.00
2023-04-12T08:44:17.952Z,94386.00
2023-04-12T08:45:18.098Z,94386.00
2023-04-12T08:46:18.048Z,94388.00
2023-04-12T08:47:18.221Z,94392.00
2023-04-12T08:48:18.528Z,94390.00
2023-04-12T08:49:18.238Z,94390.00
2023-04-12T08:50:18.861Z,94388.00
2023-04-12T08:51:19.348Z,94388.00
2023-04-12T08:52:18.367Z,94392.00
2023-04-12T08:53:18.540Z,94394.00
2023-04-12T08:54:18.475Z,94392.00
2023-04-12T08:55:18.519Z,94392.00
2023-04-12T08:56:18.553Z,94386.00
2023-04-12T08:57:18.598Z,94384.00
2023-04-12T08:58:18.999Z,94384.00
2023-04-12T08:59:18.787Z,94384.00
2023-04-12T09:00:19.001Z,94374.00
2023-04-12T09:01:18.791Z,94376.00
2023-04-12T09:02:18.847Z,94372.00
2023-04-12T09:03:19.276Z,94370.00
2023-04-12T09:04:19.004Z,94374.00
2023-04-12T09:05:19.030Z,94366.00
2023-04-12T09:06:18.943Z,94366.00
2023-04-12T09:07:18.954Z,94361.00
2023-04-12T09:08:19.008Z,94353.00
2023-04-12T09:09:18.963Z,94343.00
2023-04-12T09:10:19.011Z,94329.00
2023-04-12T09:11:19.022Z,94323.00
2023-04-12T09:12:19.058Z,94327.00
2023-04-12T09:13:19.504Z,94333.00
2023-04-12T09:14:19.048Z,94341.00
2023-04-12T09:15:19.508Z,94343.00
2023-04-12T09:16:19.160Z,94345.00
2023-04-12T09:17:19.208Z,94345.00
2023-04-12T09:18:19.255Z,94341.00
2023-04-12T09:19:19.508Z,94339.00
2023-04-12T09:20:19.337Z,94341.00
2023-04-12T09:21:19.373Z,94341.00
2023-04-12T09:22:19.433Z,94339.00
2023-04-12T09:23:19.521Z,94337.00
2023-04-12T09:24:19.512Z,94335.00
2023-04-12T09:25:19.512Z,94333.00
2023-04-12T09:26:19.481Z,94323.00
2023-04-12T09:27:19.500Z,94317.00
2023-04-12T09:28:19.594Z,94311.00
2023-04-12T09:29:20.032Z,94313.00
2023-04-12T09:30:19.714Z,94315.00
2023-04-12T09:31:19.818Z,94313.00
2023-04-12T09:32:19.706Z,94306.00
2023-04-12T09:33:19.794Z,94306.00
2023-04-12T09:34:20.052Z,94304.00
2023-04-12T09:35:19.747Z,94302.00
2023-04-12T09:36:19.838Z,94296.00
2023-04-12T09:37:19.865Z,94294.00
2023-04-12T09:38:20.052Z,94298.00
2023-04-12T09:39:19.974Z,94300.00
2023-04-12T09:40:20.000Z,94302.00
2023-04-12T09:41:22.526Z,94296.00
2023-04-12T09:42:33.273Z,94298.00
2023-04-12T09:43:20.037Z,94296.00
2023-04-12T09:44:20.116Z,94294.00
2023-04-12T09:45:20.083Z,94292.00
2023-04-12T09:46:20.089Z,94292.00
2023-04-12T09:47:27.393Z,94288.00
2023-04-12T09:48:21.002Z,94284.00
2023-04-12T09:49:19.954Z,94280.00
2023-04-12T09:50:21.018Z,94280.00
2023-04-12T09:51:20.329Z,94274.00
2023-04-12T09:52:19.907Z,94278.00
2023-04-12T09:53:19.910Z,94274.00
2023-04-12T09:54:19.903Z,94272.00
2023-04-12T09:55:20.038Z,94268.00
2023-04-12T09:56:19.860Z,94264.00
2023-04-12T09:57:19.883Z,94264.00
2023-04-12T09:58:19.872Z,94262.00
2023-04-12T09:59:20.040Z,94262.00
2023-04-12T10:00:19.916Z,94262.00
2023-04-12T10:01:20.058Z,94268.00
2023-04-12T10:02:19.987Z,94266.00
2023-04-12T10:03:20.239Z,94264.00
2023-04-12T10:04:20.177Z,94262.00
2023-04-12T10:05:21.035Z,94259.00
2023-04-12T10:06:20.092Z,94257.00
2023-04-12T10:07:20.142Z,94257.00
2023-04-12T10:08:20.190Z,94251.00
2023-04-12T10:09:20.834Z,94251.00
2023-04-12T10:10:20.402Z,94241.00
2023-04-12T10:11:20.337Z,94245.00
2023-04-12T10:12:20.377Z,94245.00
2023-04-12T10:13:20.872Z,94243.00
2023-04-12T10:14:20.456Z,94243.00
2023-04-12T10:15:20.505Z,94241.00
2023-04-12T10:16:20.653Z,94239.00
2023-04-12T10:17:20.575Z,94237.00
2023-04-12T10:18:21.028Z,94229.00
2023-04-12T10:19:20.578Z,94223.00
2023-04-12T10:20:20.603Z,94223.00
2023-04-12T10:21:20.685Z,94221.00
2023-04-12T10:22:20.631Z,94213.00
2023-04-12T10:23:21.103Z,94213.00
2023-04-12T10:24:21.041Z,94206.00
2023-04-12T10:25:20.827Z,94204.00
2023-04-12T10:26:20.778Z,94206.00
2023-04-12T10:27:21.740Z,94198.00
2023-04-12T10:28:20.793Z,94192.00
2023-04-12T10:29:21.073Z,94188.00
2023-04-12T10:30:20.944Z,94184.00
2023-04-12T10:31:21.182Z,94184.00
2023-04-12T10:32:20.953Z,94186.00
2023-04-12T10:33:22.113Z,94182.00
2023-04-12T10:34:21.044Z,94180.00
2023-04-12T10:35:21.012Z,94178.00
2023-04-12T10:36:21.146Z,94176.00
2023-04-12T10:37:21.099Z,94170.00
2023-04-12T10:38:21.545Z,94170.00
2023-04-12T10:39:21.167Z,94170.00
2023-04-12T10:40:21.273Z,94168.00
2023-04-12T10:41:21.310Z,94168.00
2023-04-12T10:42:21.314Z,94163.00
2023-04-12T10:43:21.419Z,94165.00
2023-04-12T10:44:21.422Z,94163.00
2023-04-12T10:45:21.488Z,94159.00
2023-04-12T10:46:21.536Z,94157.00
2023-04-12T10:47:21.552Z,94159.00
2023-04-12T10:48:22.172Z,94157.00
2023-04-12T10:49:21.578Z,94155.00
2023-04-12T10:50:22.380Z,94153.00
2023-04-12T10:51:22.815Z,94149.00
2023-04-12T10:52:21.917Z,94149.00
2023-04-12T10:53:21.772Z,94147.00
2023-04-12T10:54:21.760Z,94145.00
2023-04-12T10:55:22.179Z,94147.00
2023-04-12T10:56:22.603Z,94145.00
2023-04-12T10:57:22.194Z,94141.00
2023-04-12T10:58:22.199Z,94139.00
2023-04-12T10:59:22.209Z,94135.00
2023-04-12T11:00:22.244Z,94137.00
2023-04-12T11:01:22.314Z,94137.00
2023-04-12T11:02:22.344Z,94129.00
2023-04-12T11:03:22.598Z,94131.00
2023-04-12T11:04:22.458Z,94129.00
2023-04-12T11:05:22.273Z,94127.00
2023-04-12T11:06:27.646Z,94115.00
2023-04-12T11:07:22.875Z,94112.00
2023-04-12T11:08:22.250Z,94108.00
2023-04-12T11:09:22.345Z,94102.00
2023-04-12T11:10:23.029Z,94102.00
2023-04-12T11:11:22.254Z,94102.00
2023-04-12T11:12:22.239Z,94096.00
2023-04-12T11:13:22.226Z,94096.00
2023-04-12T11:14:22.201Z,94092.00
2023-04-12T11:15:22.625Z,94088.00
2023-04-12T11:16:22.611Z,94090.00
2023-04-12T11:17:22.750Z,94086.00
2023-04-12T11:18:22.242Z,94084.00
2023-04-12T11:19:22.177Z,94086.00
2023-04-12T11:20:22.206Z,94086.00
2023-04-12T11:21:22.186Z,94082.00
2023-04-12T11:22:22.215Z,94082.00
2023-04-12T11:23:22.686Z,94080.00
2023-04-12T11:24:22.198Z,94078.00
2023-04-12T11:25:22.407Z,94082.00
2023-04-12T11:26:22.400Z,94082.00
2023-04-12T11:27:22.404Z,94074.00
2023-04-12T11:28:28.626Z,94070.00
2023-04-12T11:29:22.565Z,94072.00
2023-04-12T11:30:22.422Z,94065.00
2023-04-12T11:31:22.460Z,94063.00
2023-04-12T11:32:22.561Z,94061.00
2023-04-12T11:33:22.398Z,94057.00
2023-04-12T11:34:22.574Z,94059.00
2023-04-12T11:35:22.382Z,94053.00
2023-04-12T11:36:22.570Z,94053.00
2023-04-12T11:37:22.363Z,94047.00
2023-04-12T11:38:22.361Z,94047.00
2023-04-12T11:39:22.358Z,94045.00
2023-04-12T11:40:22.341Z,94041.00
2023-04-12T11:41:22.372Z,94045.00
2023-04-12T11:42:22.335Z,94039.00
2023-04-12T11:43:22.322Z,94037.00
2023-04-12T11:44:22.328Z,94035.00
2023-04-12T11:45:22.336Z,94029.00